Data for 04/17/2016

Time Sea-Level Adjusted Pressure Absolute Pressure Temperature Relative Humidity Dew Point   
(mb) (inHg) (mb) (inHg) (C) (F) (%) (C) (F)
00:05 1030 30.42 859 25.37 1.2 34.2 66 -4.5 23.9
00:10 1030 30.42 859 25.37 1.1 33.9 67 -4.5 24
00:15 1030 30.42 859 25.37 1 33.7 67 -4.5 23.9
00:20 1030 30.42 859 25.37 0.9 33.6 66 -4.7 23.5
00:25 1030 30.42 859 25.37 1.1 34 66 -4.6 23.6
00:30 1030 30.42 859 25.37 1.2 34.1 65 -4.7 23.5
00:35 1030 30.42 859 25.37 1.2 34.1 65 -4.6 23.6
00:40 1030 30.42 859 25.37 1 33.9 65 -4.8 23.3
00:45 1030 30.42 859 25.37 1.2 34.2 62 -5.3 22.5
00:50 1030 30.42 859 25.37 1.6 34.9 60 -5.4 22.2
00:55 1030 30.42 859 25.37 1.8 35.2 60 -5 22.9
01:00 1030 30.42 859 25.37 1.6 34.9 61 -5.2 22.6
01:05 1030 30.42 859 25.37 1.7 35 60 -5.2 22.7
01:10 1030 30.42 859 25.37 1.7 35.1 60 -5.2 22.6
01:15 1030 30.42 859 25.37 1.6 34.8 62 -5 23
01:20 1029 30.39 859 25.37 1.3 34.3 63 -5 22.9
01:25 1029 30.39 859 25.37 1.1 33.9 64 -5.1 22.9
01:30 1029 30.39 859 25.37 1 33.7 63 -5.2 22.6
01:35 1029 30.39 859 25.37 1 33.8 63 -5.3 22.4
01:40 1029 30.39 859 25.37 1.2 34.1 63 -5.2 22.7
01:45 1029 30.39 859 25.37 1.1 34 63 -5.1 22.8
01:50 1029 30.39 859 25.37 1 33.8 64 -5.1 22.9
01:55 1029 30.39 859 25.37 0.8 33.5 65 -5.1 22.9
02:00 1029 30.39 859 25.37 0.7 33.3 65 -5.1 22.9
02:05 1029 30.39 859 25.37 0.5 32.9 67 -5 22.9
02:10 1029 30.39 859 25.37 0.4 32.7 67 -5 23
02:15 1029 30.39 859 25.37 0.3 32.5 68 -5 22.9
02:20 1029 30.39 858 25.34 0.3 32.6 67 -5.1 22.8
02:25 1029 30.39 858 25.34 0.5 32.9 66 -5.1 22.8
02:30 1029 30.39 858 25.34 0.5 32.8 66 -5.1 22.8
02:35 1029 30.39 858 25.34 0.3 32.6 68 -5 23.1
02:40 1029 30.39 858 25.34 0.2 32.4 67 -5.2 22.7
02:45 1029 30.39 858 25.34 0.2 32.3 70 -4.7 23.5
02:50 1029 30.39 858 25.34 -0.2 31.6 70 -5.1 22.9
02:55 1029 30.39 858 25.34 -0.3 31.5 71 -5 23
03:00 1029 30.39 858 25.34 -0.2 31.6 69 -5.2 22.6
03:05 1029 30.39 858 25.34 -0.2 31.7 70 -5 23
03:10 1029 30.39 859 25.37 -0.3 31.5 70 -5.1 22.8
03:15 1029 30.39 859 25.37 -0 31.9 68 -5.2 22.7
03:20 1029 30.39 859 25.37 0.1 32.2 68 -5.1 22.8
03:25 1029 30.39 858 25.34 0.1 32.3 67 -5.2 22.6
03:30 1029 30.39 859 25.37 0 32.1 68 -5.1 22.8
03:35 1029 30.39 859 25.37 -0.1 31.8 69 -5 23
03:40 1029 30.39 859 25.37 -0.4 31.3 70 -5.1 22.8
03:45 1030 30.42 859 25.37 -0.4 31.2 71 -5.1 22.8
03:50 1030 30.42 859 25.37 -0.5 31.1 71 -5.2 22.7
03:55 1030 30.42 859 25.37 -0.4 31.3 70 -5.3 22.5
04:00 1030 30.42 859 25.37 -0.3 31.4 70 -5.1 22.8
04:05 1030 30.42 859 25.37 -0.5 31.1 70 -5.4 22.4
04:10 1030 30.42 859 25.37 -0.2 31.6 68 -5.4 22.3
04:15 1030 30.42 859 25.37 -0.2 31.7 69 -5.2 22.6
04:20 1030 30.42 859 25.37 -0.5 31 71 -5.2 22.7
04:25 1030 30.42 859 25.37 -0.7 30.8 71 -5.4 22.3
04:30 1030 30.42 859 25.37 -0.8 30.5 73 -5.2 22.7
04:35 1030 30.42 859 25.37 -1.2 29.8 73 -5.4 22.3
04:40 1030 30.42 859 25.37 -0.9 30.4 71 -5.6 21.9
04:45 1030 30.42 859 25.37 -0.6 30.9 70 -5.4 22.3
04:50 1030 30.42 859 25.37 -1 30.2 72 -5.4 22.3
04:55 1030 30.42 859 25.37 -0.8 30.7 70 -5.5 22.1
05:00 1030 30.42 859 25.37 -0.6 30.9 70 -5.4 22.3
05:05 1030 30.42 859 25.37 -0.7 30.7 71 -5.4 22.3
05:10 1030 30.42 859 25.37 -1 30.2 72 -5.5 22.1
05:15 1030 30.42 859 25.37 -0.9 30.3 72 -5.4 22.3
05:20 1030 30.42 859 25.37 -1 30.2 71 -5.5 22
05:25 1030 30.42 859 25.37 -0.7 30.7 70 -5.6 21.9
05:30 1030 30.42 859 25.37 -0.6 31 70 -5.5 22.2
05:35 1030 30.42 859 25.37 -0.8 30.6 70 -5.5 22.1
05:40 1030 30.42 859 25.37 -0.6 30.9 69 -5.6 22
05:45 1030 30.42 859 25.37 -0.3 31.5 67 -5.6 21.9
05:50 1030 30.42 859 25.37 -0.2 31.6 67 -5.6 21.8
05:55 1030 30.42 859 25.37 0.1 32.2 65 -5.7 21.8
06:00 1030 30.42 859 25.37 0.2 32.4 66 -5.5 22.2
06:05 1030 30.42 859 25.37 -0 32 67 -5.5 22.2
06:10 1030 30.42 860 25.4 -0.1 31.8 67 -5.5 22.1
06:15 1030 30.42 860 25.4 -0.1 31.8 67 -5.6 22
06:20 1030 30.42 860 25.4 0 32.1 66 -5.6 22
06:25 1030 30.42 860 25.4 0 32.1 67 -5.4 22.2
06:30 1030 30.42 860 25.4 0 32 67 -5.4 22.3
06:35 1030 30.42 860 25.4 0.1 32.2 66 -5.5 22.2
06:40 1031 30.45 860 25.4 0.5 32.8 65 -5.4 22.3
06:45 1031 30.45 860 25.4 0.7 33.2 64 -5.3 22.4
06:50 1031 30.45 860 25.4 1.2 34.2 61 -5.5 22.2
06:55 1031 30.45 860 25.4 1.7 35 59 -5.4 22.2
07:00 1031 30.45 860 25.4 2.3 36.2 56 -5.5 22
07:05 1031 30.45 860 25.4 2.6 36.6 58 -5 23
07:10 1031 30.45 860 25.4 2.5 36.6 57 -5.2 22.6
07:15 1031 30.45 860 25.4 2.6 36.6 56 -5.3 22.4
07:20 1031 30.45 860 25.4 3 37.3 54 -5.3 22.4
07:25 1031 30.45 860 25.4 2.8 37.1 56 -5.2 22.7
07:30 1031 30.45 860 25.4 2.9 37.2 57 -4.7 23.5
07:35 1031 30.45 860 25.4 3.4 38.2 54 -5 22.9
07:40 1031 30.45 860 25.4 3.7 38.7 52 -5.1 22.8
07:45 1031 30.45 860 25.4 4 39.1 53 -4.8 23.3
07:50 1031 30.45 860 25.4 4.1 39.4 51 -5.2 22.7
07:55 1031 30.45 860 25.4 4.6 40.4 50 -4.9 23.2
08:00 1031 30.45 860 25.4 5.4 41.7 46 -5.2 22.6
08:05 1031 30.45 860 25.4 5.8 42.4 47 -4.7 23.6
08:10 1031 30.45 860 25.4 5.8 42.5 47 -4.5 23.9
08:15 1031 30.45 860 25.4 5.5 42 47 -4.8 23.3
08:20 1031 30.45 860 25.4 5.3 41.6 47 -5.1 22.8
08:25 1031 30.45 860 25.4 5.9 42.5 46 -5 23
08:30 1031 30.45 860 25.4 6.1 43 45 -5.1 22.9
08:35 1031 30.45 860 25.4 6.4 43.5 43 -5.2 22.6
08:40 1031 30.45 860 25.4 6.5 43.7 44 -5 23
08:45 1031 30.45 860 25.4 7 44.6 41 -5.3 22.5
08:50 1031 30.45 860 25.4 7.4 45.4 41 -5.1 22.9
08:55 1031 30.45 860 25.4 7.7 45.8 39 -5.5 22
09:00 1031 30.45 860 25.4 7.4 45.4 40 -5.4 22.3
09:05 1031 30.45 860 25.4 8.1 46.6 38 -5.4 22.3
09:10 1031 30.45 860 25.4 8.3 47 39 -5 23
09:15 1031 30.45 860 25.4 8.5 47.2 37 -5.2 22.6
09:20 1031 30.45 860 25.4 7.6 45.7 41 -4.8 23.3
09:25 1031 30.45 860 25.4 7.7 45.9 41 -4.7 23.6
09:30 1031 30.45 860 25.4 8 46.4 40 -4.7 23.5
09:35 1031 30.45 860 25.4 8.4 47.1 40 -4.3 24.3
09:40 1031 30.45 860 25.4 8.8 47.8 40 -4 24.8
09:45 1031 30.45 860 25.4 8.9 48 39 -4.2 24.4
09:50 1031 30.45 860 25.4 8.7 47.7 38 -4.7 23.5
09:55 1031 30.45 860 25.4 9.1 48.4 36 -5 23
10:00 1031 30.45 860 25.4 8.3 47 38 -5.3 22.5
10:05 1031 30.45 860 25.4 9 48.2 35 -5.6 22
10:10 1030 30.42 860 25.4 9.5 49.2 35 -5.1 22.9
10:15 1031 30.45 860 25.4 9.2 48.6 36 -5 23.1
10:20 1031 30.45 860 25.4 8.6 47.5 35 -5.9 21.4
10:25 1030 30.42 860 25.4 9.5 49.1 32 -6.3 20.7
10:30 1030 30.42 860 25.4 10.2 50.4 33 -5.1 22.8
10:35 1030 30.42 860 25.4 9.2 48.5 34 -6.1 21.1
10:40 1030 30.42 860 25.4 9.4 48.8 34 -5.8 21.6
10:45 1030 30.42 860 25.4 9.6 49.2 32 -6.2 20.8
10:50 1030 30.42 860 25.4 9 48.1 36 -5.2 22.7
10:55 1030 30.42 860 25.4 9.7 49.5 33 -5.7 21.7
11:00 1030 30.42 860 25.4 10.3 50.5 32 -5.8 21.5
11:05 1030 30.42 859 25.37 9.3 48.7 34 -5.8 21.6
11:10 1030 30.42 859 25.37 10 49.9 32 -5.9 21.4
11:15 1030 30.42 859 25.37 10.7 51.3 31 -5.7 21.8
11:20 1030 30.42 859 25.37 11.1 52.1 30 -5.8 21.6
11:25 1030 30.42 859 25.37 10.9 51.6 31 -5.4 22.2
11:30 1030 30.42 859 25.37 9.8 49.6 32 -6.1 21.1
11:35 1030 30.42 859 25.37 9.5 49.1 32 -6.2 20.9
11:40 1030 30.42 859 25.37 9.5 49.1 31 -6.7 20
11:45 1030 30.42 859 25.37 10.7 51.2 31 -5.9 21.4
11:50 1030 30.42 859 25.37 9.8 49.6 31 -6.4 20.6
11:55 1030 30.42 859 25.37 10.1 50.1 31 -6.4 20.5
12:00 1030 30.42 859 25.37 9.8 49.7 31 -6.7 20
12:05 1030 30.42 859 25.37 10 49.9 29 -7.1 19.2
12:10 1030 30.42 859 25.37 10.7 51.2 29 -6.8 19.8
12:15 1030 30.42 859 25.37 11.1 52 29 -6.4 20.4
12:20 1029 30.39 859 25.37 11.9 53.5 26 -7.1 19.3
12:25 1029 30.39 859 25.37 12.4 54.3 27 -6.2 20.8
12:30 1029 30.39 859 25.37 11.9 53.4 27 -6.4 20.5
12:35 1029 30.39 859 25.37 11.9 53.4 28 -5.9 21.4
12:40 1029 30.39 859 25.37 10.7 51.2 30 -6.2 20.9
12:45 1029 30.39 859 25.37 10.5 50.9 28 -7.1 19.3
12:50 1029 30.39 859 25.37 11.2 52.1 27 -7.2 19
12:55 1029 30.39 858 25.34 12.9 55.2 25 -6.7 20
13:00 1029 30.39 858 25.34 12.4 54.3 26 -6.6 20.2
13:05 1029 30.39 858 25.34 11.7 53.1 28 -6.1 21.1
13:10 1029 30.39 858 25.34 11.4 52.6 27 -6.8 19.8
13:15 1029 30.39 858 25.34 11.8 53.3 27 -6.7 19.9
13:20 1029 30.39 858 25.34 12.4 54.4 26 -6.4 20.5
13:25 1029 30.39 858 25.34 12.6 54.7 26 -6.3 20.7
13:30 1029 30.39 858 25.34 11.9 53.5 28 -6.1 21.1
13:35 1029 30.39 858 25.34 11.3 52.3 27 -7.3 18.9
13:40 1029 30.39 858 25.34 12.2 54 26 -6.9 19.6
13:45 1029 30.39 858 25.34 13.4 56 25 -6 21.1
13:50 1029 30.39 858 25.34 13.5 56.3 24 -6.6 20.1
13:55 1029 30.39 858 25.34 13.3 55.9 27 -5.4 22.4
14:00 1029 30.39 858 25.34 12 53.7 27 -6.5 20.2
14:05 1029 30.39 858 25.34 12 53.6 26 -7.1 19.2
14:10 1029 30.39 858 25.34 12.9 55.2 26 -6.2 20.8
14:15 1029 30.39 858 25.34 12.3 54.2 26 -6.4 20.5
14:20 1029 30.39 858 25.34 12.8 55.1 25 -6.8 19.8
14:25 1029 30.39 858 25.34 13.1 55.6 26 -6.1 21
14:30 1029 30.39 858 25.34 11.9 53.4 27 -6.7 20
14:35 1028 30.36 858 25.34 12 53.6 27 -6.5 20.4
14:40 1028 30.36 858 25.34 13.5 56.3 23 -7.2 19
14:45 1028 30.36 858 25.34 14.3 57.8 22 -7 19.3
14:50 1028 30.36 857 25.31 13.9 57 23 -7.1 19.2
14:55 1028 30.36 857 25.31 13.9 57 22 -7.2 19
15:00 1028 30.36 857 25.31 13.8 56.9 24 -6.6 20.1
15:05 1028 30.36 857 25.31 13.9 56.9 24 -6.5 20.3
15:10 1028 30.36 857 25.31 14 57.2 23 -6.7 20
15:15 1028 30.36 857 25.31 14.1 57.3 23 -6.5 20.3
15:20 1028 30.36 857 25.31 14.2 57.5 23 -6.4 20.5
15:25 1028 30.36 857 25.31 13.2 55.7 23 -7.3 18.9
15:30 1028 30.36 857 25.31 13.9 57.1 23 -6.6 20.1
15:35 1028 30.36 857 25.31 14.3 57.7 23 -6.7 20
15:40 1028 30.36 857 25.31 13.6 56.4 25 -6.2 20.8
15:45 1028 30.36 857 25.31 13.5 56.3 24 -6.9 19.7
15:50 1028 30.36 857 25.31 13 55.3 24 -7.1 19.2
15:55 1028 30.36 857 25.31 12.6 54.7 19 -10.2 13.7
16:00 1028 30.36 857 25.31 13.1 55.6 18 -10.9 12.4
16:05 1028 30.36 857 25.31 13.2 55.8 18 -10.8 12.5
16:10 1028 30.36 857 25.31 13.5 56.2 17 -11.1 12
16:15 1028 30.36 857 25.31 13.1 55.5 16 -12.3 9.9
16:20 1028 30.36 857 25.31 12.5 54.5 17 -11.9 10.6
16:25 1028 30.36 857 25.31 12.5 54.6 17 -11.7 11
16:30 1028 30.36 857 25.31 12.4 54.3 18 -11.6 11.1
16:35 1028 30.36 857 25.31 11.9 53.4 18 -11.7 11
16:40 1028 30.36 857 25.31 12.2 53.9 18 -11.3 11.6
16:45 1028 30.36 857 25.31 12.1 53.8 18 -11.6 11
16:50 1028 30.36 857 25.31 11.8 53.3 19 -10.9 12.4
16:55 1028 30.36 857 25.31 11.9 53.4 20 -10.5 13
17:00 1028 30.36 857 25.31 12 53.6 20 -10 14
17:05 1028 30.36 857 25.31 11.8 53.3 20 -10.5 13.1
17:10 1028 30.36 857 25.31 11.8 53.2 20 -10.5 13.1
17:15 1028 30.36 857 25.31 11.7 53 21 -10 13.9
17:20 1028 30.36 857 25.31 11.5 52.7 20 -10.4 13.2
17:25 1028 30.36 857 25.31 11.5 52.8 22 -9.6 14.8
17:30 1028 30.36 857 25.31 11.5 52.8 21 -9.8 14.4
17:35 1028 30.36 857 25.31 11.3 52.3 21 -10.2 13.6
17:40 1028 30.36 857 25.31 11.1 51.9 22 -10.1 13.8
17:45 1028 30.36 857 25.31 10.9 51.6 22 -10.1 13.9
17:50 1028 30.36 857 25.31 10.9 51.6 21 -10.4 13.3
17:55 1028 30.36 857 25.31 10.7 51.3 22 -10.4 13.4
18:00 1028 30.36 857 25.31 10.7 51.2 22 -10.4 13.3
18:05 1028 30.36 857 25.31 10.6 51 22 -10.1 13.8
18:10 1028 30.36 857 25.31 10.6 51 22 -10.1 13.9
18:15 1028 30.36 857 25.31 10.6 51 23 -9.6 14.7
18:20 1028 30.36 857 25.31 10.5 51 23 -9.9 14.2
18:25 1028 30.36 857 25.31 10.4 50.7 23 -9.6 14.6
18:30 1028 30.36 857 25.31 10.3 50.5 23 -9.8 14.3
18:35 1028 30.36 857 25.31 10.2 50.3 24 -9.7 14.5
18:40 1028 30.36 857 25.31 10.1 50.2 23 -9.9 14.1
18:45 1028 30.36 857 25.31 10 50.1 24 -9.5 14.9
18:50 1028 30.36 857 25.31 9.9 49.9 24 -9.5 14.8
18:55 1028 30.36 857 25.31 9.8 49.6 25 -9.3 15.3
19:00 1028 30.36 857 25.31 9.7 49.4 25 -9.2 15.4
19:05 1028 30.36 857 25.31 9.5 49.1 27 -8.8 16.2
19:10 1028 30.36 857 25.31 9.3 48.8 28 -8.4 16.9
19:15 1028 30.36 857 25.31 9.1 48.4 29 -8.1 17.4
19:20 1028 30.36 857 25.31 8.9 48.1 29 -8 17.7
19:25 1028 30.36 857 25.31 8.8 47.8 30 -8 17.7
19:30 1028 30.36 857 25.31 8.7 47.6 30 -7.8 17.9
19:35 1028 30.36 857 25.31 8.5 47.3 31 -7.8 18
19:40 1028 30.36 858 25.34 8.4 47 32 -7.6 18.4
19:45 1028 30.36 858 25.34 8.2 46.7 32 -7.4 18.7
19:50 1028 30.36 858 25.34 8.1 46.6 32 -7.5 18.5
19:55 1028 30.36 858 25.34 8 46.5 33 -7.2 19
20:00 1028 30.36 858 25.34 7.9 46.2 33 -7.4 18.8
20:05 1028 30.36 858 25.34 7.8 46 33 -7.4 18.7
20:10 1028 30.36 858 25.34 7.7 45.8 34 -7.2 19
20:15 1028 30.36 858 25.34 7.6 45.6 34 -7.4 18.7
20:20 1029 30.39 858 25.34 7.5 45.5 34 -7.5 18.5
20:25 1029 30.39 858 25.34 7.5 45.5 33 -7.6 18.4
20:30 1029 30.39 858 25.34 7.4 45.3 35 -7.2 19
20:35 1029 30.39 858 25.34 7.2 44.9 36 -7.1 19.3
20:40 1029 30.39 858 25.34 7 44.7 36 -7 19.5
20:45 1029 30.39 858 25.34 6.9 44.5 36 -7.2 19.1
20:50 1029 30.39 858 25.34 6.8 44.3 36 -7.3 18.9
20:55 1029 30.39 858 25.34 6.8 44.2 37 -7 19.4
21:00 1029 30.39 858 25.34 6.7 44 37 -7.1 19.3
21:05 1029 30.39 858 25.34 6.6 43.9 37 -7.1 19.2
21:10 1029 30.39 858 25.34 6.6 43.8 37 -6.9 19.5
21:15 1029 30.39 858 25.34 6.5 43.7 38 -7 19.4
21:20 1029 30.39 858 25.34 6.5 43.6 38 -6.9 19.6
21:25 1029 30.39 858 25.34 6.5 43.6 38 -6.8 19.7
21:30 1029 30.39 858 25.34 6.4 43.5 38 -6.7 19.9
21:35 1029 30.39 858 25.34 6.3 43.3 39 -6.6 20.1
21:40 1029 30.39 858 25.34 6.2 43.2 39 -6.6 20.1
21:45 1029 30.39 858 25.34 6.2 43.1 40 -6.5 20.3
21:50 1029 30.39 858 25.34 6 42.9 40 -6.5 20.4
21:55 1029 30.39 858 25.34 6.1 42.9 40 -6.5 20.3
22:00 1029 30.39 858 25.34 6 42.8 40 -6.4 20.4
22:05 1029 30.39 859 25.37 6 42.8 41 -6.4 20.5
22:10 1029 30.39 859 25.37 5.9 42.7 41 -6.3 20.6
22:15 1029 30.39 859 25.37 5.9 42.6 41 -6.3 20.7
22:20 1029 30.39 859 25.37 5.8 42.5 42 -6.1 20.9
22:25 1029 30.39 859 25.37 5.8 42.4 42 -6.1 21
22:30 1029 30.39 859 25.37 5.8 42.4 42 -6.1 21.1
22:35 1029 30.39 859 25.37 5.8 42.4 43 -6 21.2
22:40 1029 30.39 859 25.37 5.8 42.4 43 -5.9 21.4
22:45 1029 30.39 859 25.37 5.7 42.3 43 -5.7 21.7
22:50 1029 30.39 859 25.37 5.6 42.1 44 -5.6 21.9
22:55 1029 30.39 859 25.37 5.6 42.1 44 -5.7 21.8
23:00 1029 30.39 859 25.37 5.6 42.1 45 -5.5 22
23:05 1030 30.42 859 25.37 5.6 42 45 -5.6 22
23:10 1030 30.42 859 25.37 5.5 42 44 -5.6 21.9
23:15 1030 30.42 859 25.37 5.5 42 45 -5.4 22.2
23:20 1030 30.42 859 25.37 5.5 41.9 45 -5.4 22.2
23:25 1030 30.42 859 25.37 5.5 41.9 45 -5.5 22.1
23:30 1030 30.42 859 25.37 5.6 42 45 -5.5 22.1
23:35 1030 30.42 859 25.37 5.6 42.1 45 -5.5 22.1
23:40 1030 30.42 859 25.37 5.6 42.1 45 -5.3 22.4
23:45 1030 30.42 859 25.37 5.6 42 45 -5.3 22.4
23:50 1030 30.42 859 25.37 5.5 41.9 46 -5.2 22.6
23:55 1030 30.42 859 25.37 5.5 41.9 46 -5.3 22.5
24:00 1030 30.42 859 25.37 5.5 41.9 46 -5.2 22.6